Latest Weather Observations for Camooweal

IDD60801

Issued at 11:21 pm CST Sunday 17 February 2019 (issued every 10 minutes, with the page automatically refreshed every 10 minutes)

About weather observations | Map of weather stations | Latest weather observations for NT | Other Formats
Station Details ID: 037010 Name: CAMOOWEAL TOWNSHIP Lat: -19.92 Lon: 138.12 Height: 231.2 m
Data from the previous 72 hours. | See also: Recent months at Camooweal
Date/Time
CST
Temp
°C
App
Temp
°C
Dew
Point
°C
Rel
Hum
%
Delta-T
°C
Wind Press
QNH
hPa
Press
MSL
hPa
Rain since
9am
mm
Dir  Spd
km/h
Gust
km/h
Spd
kts
Gust
kts
17/11:00pm 28.7 26.6 8.4 28 11.2 E 9 13 5 7 1009.2 1007.5 0.0
17/10:30pm 28.7 26.6 8.4 28 11.2 E 9 13 5 7 1008.9 1007.2 0.0
17/10:00pm 29.4 27.4 8.5 27 11.6 E 9 13 5 7 1008.7 1007.0 0.0
17/09:30pm 29.3 26.5 8.4 27 11.6 E 13 15 7 8 1008.5 1006.8 0.0
17/09:00pm 30.1 27.7 8.5 26 12.0 E 11 15 6 8 1008.1 1006.3 0.0
17/08:30pm 31.4 29.2 7.8 23 13.1 ENE 9 11 5 6 1008.2 1006.4 0.0
17/08:00pm 32.6 30.3 7.4 21 14.0 ENE 9 11 5 6 1008.0 1006.2 0.0
17/07:30pm 33.8 30.8 6.2 18 15.1 ENE 11 11 6 6 1007.7 1005.9 0.0
17/07:00pm 34.6 33.3 7.6 19 15.2 SW 4 9 2 5 1007.4 1005.6 0.0
17/06:30pm 36.2 33.8 4.5 14 17.1 SW 6 11 3 6 1007.0 1005.2 0.0
17/06:00pm 37.3 34.7 4.3 13 17.8 ESE 7 9 4 5 1006.8 1005.0 0.0
17/05:30pm 37.9 35.2 3.6 12 18.5 SW 7 11 4 6 1006.8 1005.0 0.0
17/05:00pm 37.6 35.0 3.4 12 18.3 SW 6 9 3 5 1006.8 1005.0 0.0
17/04:30pm 38.2 34.0 3.8 12 18.6 W 15 20 8 11 1006.9 1005.1 0.0
17/04:00pm 37.3 34.7 4.3 13 17.8 SSW 7 11 4 6 1007.0 1005.2 0.0
17/03:30pm 38.1 35.2 4.9 13 18.2 W 9 20 5 11 1007.3 1005.5 0.0
17/03:00pm 38.1 36.4 6.0 14 17.9 WNW 4 11 2 6 1007.7 1005.9 0.0
17/02:30pm 37.7 35.0 5.6 14 17.8 WNW 9 17 5 9 1008.2 1006.4 0.0
17/02:00pm 37.5 33.6 3.3 12 18.2 WSW 13 24 7 13 1008.7 1007.0 0.0
17/01:30pm 37.0 34.4 4.0 13 17.8 WSW 7 19 4 10 1009.2 1007.5 0.0
17/01:00pm 37.1 33.2 5.2 14 17.5 W 15 20 8 11 1009.7 1008.0 0.0
17/12:30pm 36.5 34.4 5.7 15 17.0 NNW 6 13 3 7 1010.3 1008.6 0.0
17/12:00pm 36.5 33.4 5.7 15 17.0 WNW 11 15 6 8 1011.0 1009.2 0.0
17/11:30am 36.4 33.7 7.4 17 16.4 NNW 11 19 6 10 1011.4 1009.6 0.0
17/11:00am 35.2 33.6 11.6 24 14.1 WNW 11 19 6 10 1011.8 1010.0 0.0
17/10:30am 34.0 33.9 15.9 33 11.5 NW 11 17 6 9 1012.4 1010.7 0.0
17/10:00am 33.1 34.0 19.2 43 9.2 WNW 13 20 7 11 1012.6 1010.9 0.0
17/09:30am 31.3 32.1 19.0 48 8.1 NW 13 24 7 13 1012.8 1011.1 0.0
17/09:00am 29.9 31.2 20.2 56 6.5 NW 13 19 7 10 1012.8 1011.1 0.0
17/08:30am 28.6 29.8 20.6 62 5.3 NNW 15 26 8 14 1012.6 1010.9 0.0
17/08:00am 27.0 28.1 18.8 60 5.3 NNW 11 19 6 10 1012.5 1010.8 0.0
17/07:30am 25.4 26.2 18.1 64 4.6 NNW 11 17 6 9 1012.2 1010.5 0.0
17/07:00am 23.7 24.5 17.4 68 3.9 N 9 13 5 7 1011.8 1010.0 0.0
17/06:30am 21.8 21.6 15.6 68 3.7 NNE 11 13 6 7 1011.5 1009.7 0.0
17/06:00am 22.0 22.3 15.1 65 4.1 N 7 9 4 5 1011.0 1009.2 0.0
17/05:30am 22.3 22.6 14.9 63 4.4 N 7 9 4 5 1010.7 1008.9 0.0
17/05:00am 21.9 21.7 13.0 57 5.1 N 6 7 3 4 1010.4 1008.7 0.0
17/04:30am 21.6 20.8 11.6 53 5.6 N 7 9 4 5 1010.4 1008.7 0.0
17/04:00am 20.6 20.6 9.8 50 5.9 CALM 0 0 0 0 1010.3 1008.6 0.0
17/03:30am 21.0 20.4 8.9 46 6.5 N 2 6 1 3 1010.4 1008.7 0.0
17/03:00am 21.9 20.7 8.1 41 7.3 N 4 6 2 3 1010.4 1008.7 0.0
17/02:30am 23.4 20.9 6.7 34 8.7 N 9 11 5 6 1010.5 1008.8 0.0
17/02:00am 24.0 21.1 8.0 36 8.6 N 13 22 7 12 1010.8 1009.0 0.0
17/01:30am 21.4 21.2 10.3 49 6.1 NNW 2 7 1 4 1010.3 1008.6 0.0
17/01:00am 22.6 21.4 8.0 39 7.7 NNW 4 11 2 6 1010.5 1008.8 0.0
17/12:30am 22.1 21.1 10.3 47 6.5 ESE 6 9 3 5 1010.8 1009.0 0.0
17/12:00am 23.5 23.6 10.2 43 7.4 CALM 0 0 0 0 1011.0 1009.2 0.0
 
Date/Time
CST
Temp
°C
App
Temp
°C
Dew
Point
°C
Rel
Hum
%
Delta-T
°C
Wind Press
QNH
hPa
Press
MSL
hPa
Rain since
9am
mm
Dir  Spd
km/h
Gust
km/h
Spd
kts
Gust
kts
16/11:30pm 23.8 23.3 7.8 36 8.5 CALM 0 0 0 0 1011.3 1009.5 0.0
16/11:00pm 25.1 23.9 4.8 27 10.3 CALM 0 0 0 0 1011.5 1009.7 0.0
16/10:30pm 25.4 24.4 5.6 28 10.2 CALM 0 0 0 0 1011.5 1009.7 0.0
16/10:00pm 25.9 24.7 4.4 25 10.9 CALM 0 0 0 0 1011.3 1009.5 0.0
16/09:30pm 27.2 25.1 3.7 22 11.9 ESE 4 7 2 4 1011.3 1009.5 0.0
16/09:00pm 28.1 25.5 3.0 20 12.6 ESE 6 7 3 4 1011.0 1009.2 0.0
16/08:30pm 29.3 26.0 2.5 18 13.5 ESE 9 11 5 6 1010.8 1009.0 0.0
16/08:00pm 30.0 26.7 2.3 17 13.9 SSE 9 11 5 6 1010.7 1008.9 0.0
16/07:30pm 30.6 27.6 1.9 16 14.4 S 7 9 4 5 1010.4 1008.7 0.0
16/07:00pm 31.9 28.5 2.1 15 15.1 S 9 11 5 6 1010.1 1008.4 0.0
16/06:30pm 33.9 30.5 1.6 13 16.4 S 9 11 5 6 1009.9 1008.2 0.0
16/06:00pm 35.3 31.7 0.4 11 17.6 SSW 9 15 5 8 1009.7 1008.0 0.0
16/05:30pm 35.8 31.8 0.8 11 17.8 SSW 11 20 6 11 1009.5 1007.8 0.0
16/05:00pm 35.9 29.9 0.9 11 17.8 SW 22 28 12 15 1009.3 1007.6 0.0
16/04:30pm 36.4 31.7 1.2 11 18.1 SSW 15 30 8 16 1009.3 1007.6 0.0
16/04:00pm 36.6 31.8 0.1 10 18.4 SW 15 22 8 12 1009.6 1007.9 0.0
16/03:30pm 37.0 31.5 1.7 11 18.3 SW 20 26 11 14 1009.9 1008.2 0.0
16/03:00pm 36.9 31.8 2.8 12 18.0 SW 19 28 10 15 1010.1 1008.4 0.0
16/02:30pm 36.5 32.6 1.3 11 18.1 S 11 17 6 9 1010.4 1008.7 0.0
16/02:00pm 36.4 32.1 1.2 11 18.1 SW 13 20 7 11 1010.9 1009.1 0.0
16/01:30pm 36.8 33.2 2.8 12 17.9 WSW 11 24 6 13 1011.4 1009.6 0.0
16/01:00pm 35.4 31.8 0.5 11 17.6 W 9 17 5 9 1011.9 1010.1 0.0
16/12:30pm 35.4 31.8 0.5 11 17.6 SSW 9 15 5 8 1012.4 1010.7 0.0
16/12:00pm 35.2 31.9 2.6 13 17.0 S 9 15 5 8 1013.0 1011.3 0.0
16/11:30am 35.5 32.1 1.8 12 17.4 SW 9 17 5 9 1013.4 1011.7 0.0
16/11:00am 35.0 31.7 2.5 13 16.9 S 9 17 5 9 1013.8 1012.1 0.0
16/10:30am 33.7 29.5 1.5 13 16.3 S 13 19 7 10 1014.1 1012.4 0.0
16/10:00am 33.3 29.5 4.1 16 15.4 SE 13 20 7 11 1014.3 1012.6 0.0
16/09:30am 32.3 28.2 4.2 17 14.8 SSE 15 20 8 11 1014.3 1012.6 0.0
16/09:00am 31.0 26.6 4.7 19 13.8 SE 17 20 9 11 1014.4 1012.7 0.0
16/08:30am 29.4 26.3 5.5 22 12.6 S 11 15 6 8 1014.3 1012.6 0.0
16/08:00am 26.4 24.1 7.4 30 10.2 SSW 9 11 5 6 1014.2 1012.5 0.0
16/07:30am 22.4 21.0 8.9 42 7.3 SSW 6 9 3 5 1014.0 1012.3 0.0
16/07:00am 19.8 18.6 10.2 54 5.2 SSW 7 9 4 5 1013.9 1012.2 0.0
16/06:30am 18.7 16.8 9.2 54 5.0 SSW 9 11 5 6 1013.6 1011.9 0.0
16/06:00am 18.8 17.4 8.7 52 5.3 SSW 6 7 3 4 1013.3 1011.6 0.0
16/05:30am 19.3 18.1 8.0 48 5.9 SSW 4 7 2 4 1013.1 1011.4 0.0
16/05:00am 19.6 17.9 7.4 45 6.3 SSW 6 7 3 4 1012.9 1011.2 0.0
16/04:30am 19.9 18.4 8.3 47 6.1 SSW 6 7 3 4 1012.7 1011.0 0.0
16/04:00am 20.7 18.9 8.0 44 6.7 SSW 7 7 4 4 1012.4 1010.7 0.0
16/03:30am 20.9 19.1 7.9 43 6.8 SSW 7 7 4 4 1012.4 1010.7 0.0
16/03:00am 22.0 20.2 7.0 38 7.8 SSW 6 7 3 4 1012.6 1010.9 0.0
16/02:30am 22.0 19.6 7.0 38 7.8 SSW 9 9 5 5 1012.7 1011.0 0.0
16/02:00am 22.2 19.8 6.8 37 8.0 SSW 9 11 5 6 1012.9 1011.2 0.0
16/01:30am 22.1 20.1 6.3 36 8.1 SSW 6 7 3 4 1013.2 1011.5 0.0
16/01:00am 22.3 20.3 7.3 38 7.8 SSW 7 7 4 4 1013.4 1011.7 0.0
16/12:30am 22.9 21.0 7.4 37 8.2 SSW 7 9 4 5 1013.6 1011.9 0.0
16/12:00am 23.3 21.6 7.4 36 8.4 SSW 6 7 3 4 1013.7 1012.0 0.0
 
Date/Time
CST
Temp
°C
App
Temp
°C
Dew
Point
°C
Rel
Hum
%
Delta-T
°C
Wind Press
QNH
hPa
Press
MSL
hPa
Rain since
9am
mm
Dir  Spd
km/h
Gust
km/h
Spd
kts
Gust
kts
15/11:30pm 24.1 22.2 7.7 35 8.7 SSW 7 7 4 4 1013.9 1012.2 0.0
15/11:00pm 24.8 23.0 7.0 32 9.4 SSW 6 7 3 4 1013.9 1012.2 0.0
15/10:30pm 25.3 23.0 7.4 32 9.5 SSW 9 11 5 6 1013.8 1012.1 0.0
15/10:00pm 26.0 24.2 8.0 32 9.7 SSW 7 7 4 4 1013.7 1012.0 0.0
15/09:30pm 26.3 24.9 8.8 33 9.6 SSW 6 7 3 4 1013.3 1011.6 0.0
15/09:00pm 27.3 25.3 7.2 28 10.8 SSW 7 9 4 5 1013.1 1011.4 0.0
15/08:30pm 28.1 25.8 7.4 27 11.2 SSW 9 11 5 6 1012.9 1011.2 0.0
15/08:00pm 29.4 27.1 5.5 22 12.6 SSW 7 9 4 5 1012.4 1010.7 0.0
15/07:30pm 30.0 27.5 4.6 20 13.3 SSW 7 9 4 5 1012.2 1010.5 0.0
15/07:00pm 31.2 27.4 4.1 18 14.1 SSW 13 15 7 8 1011.8 1010.0 0.0
15/06:30pm 33.7 28.9 2.5 14 16.1 SSW 17 22 9 12 1011.5 1009.7 0.0
15/06:00pm 34.9 30.1 2.4 13 16.8 SSW 17 26 9 14 1011.3 1009.5 0.0
15/05:30pm 35.5 30.8 2.9 13 17.1 SSW 17 24 9 13 1011.1 1009.3 0.0
15/05:00pm 36.0 30.9 3.3 13 17.3 SSW 19 28 10 15 1011.1 1009.3 0.0
15/04:30pm 36.4 31.8 3.6 13 17.5 SW 17 24 9 13 1011.0 1009.2 0.0
15/04:00pm 36.5 31.5 3.7 13 17.5 SW 19 24 10 13 1011.1 1009.3 0.0
15/03:30pm 36.7 32.1 3.8 13 17.6 SW 17 26 9 14 1011.3 1009.5 0.0
15/03:00pm 36.3 31.5 4.6 14 17.1 S 19 30 10 16 1011.5 1009.7 0.0
15/02:30pm 35.8 30.9 4.2 14 16.9 SSW 19 32 10 17 1011.8 1010.0 0.0
15/02:00pm 35.7 30.8 4.1 14 16.9 SSW 19 26 10 14 1012.3 1010.6 0.0
15/01:30pm 35.4 30.8 3.9 14 16.8 SSW 17 26 9 14 1012.8 1011.1 0.0
15/01:00pm 35.8 32.1 4.2 14 16.9 S 13 28 7 15 1013.1 1011.4 0.0
15/12:30pm 34.3 29.6 3.0 14 16.3 S 17 26 9 14 1013.7 1012.0 0.0
15/12:00pm 34.1 28.6 1.8 13 16.5 S 20 26 11 14 1014.0 1012.3 0.0
15/11:30am 33.1 28.0 1.0 13 16.1 S 17 24 9 13 1014.6 1012.9 0.0
15/11:00am 32.6 27.8 2.6 15 15.4 SSE 17 28 9 15 1014.9 1013.2 0.0
15/10:30am 32.4 27.4 3.4 16 15.0 SSE 19 24 10 13 1015.3 1013.5 0.0
15/10:00am 31.3 25.8 1.6 15 14.9 SSE 20 28 11 15 1015.5 1013.7 0.0
15/09:30am 30.9 25.8 3.0 17 14.2 SSE 19 26 10 14 1015.4 1013.6 0.0
15/09:00am 29.4 24.0 2.6 18 13.5 SSE 20 28 11 15 1015.4 1013.6 0.0
15/08:30am 27.8 22.2 3.5 21 12.3 SSE 22 30 12 16 1015.5 1013.7 0.0
15/08:00am 26.6 21.8 4.4 24 11.3 SSE 19 24 10 13 1015.2 1013.4 0.0
15/07:30am 24.7 21.7 6.0 30 9.7 S 11 15 6 8 1015.0 1013.3 0.0
15/07:00am 22.0 19.3 7.4 39 7.6 S 11 13 6 7 1014.7 1013.0 0.0
15/06:30am 20.7 17.7 7.7 43 6.8 S 13 13 7 7 1014.3 1012.6 0.0
15/06:00am 21.0 18.2 6.9 40 7.3 S 11 11 6 6 1014.1 1012.4 0.0
15/05:30am 21.0 18.6 6.9 40 7.3 S 9 11 5 6 1013.9 1012.2 0.0
15/05:00am 21.1 18.4 7.3 41 7.2 S 11 15 6 8 1013.6 1011.9 0.0
15/04:30am 22.4 19.9 6.6 36 8.2 S 9 11 5 6 1013.3 1011.6 0.0
15/04:00am 23.2 20.9 4.7 30 9.3 S 6 7 3 4 1013.1 1011.4 0.0
15/03:30am 24.0 21.1 4.4 28 9.8 S 9 9 5 5 1012.8 1011.1 0.0
15/03:00am 24.8 21.4 4.0 26 10.4 S 11 13 6 7 1012.5 1010.8 0.0
15/02:30am 25.2 20.6 3.8 25 10.7 S 17 19 9 10 1012.5 1010.8 0.0
15/02:00am 24.9 21.2 4.6 27 10.3 SSE 13 13 7 7 1013.0 1011.3 0.0
15/01:30am 25.6 22.3 4.7 26 10.6 SSE 11 15 6 8 1013.3 1011.6 0.0
15/01:00am 26.3 22.6 4.7 25 11.0 SSE 13 19 7 10 1013.3 1011.6 0.0
15/12:30am 27.0 22.6 4.7 24 11.5 S 17 19 9 10 1013.2 1011.5 0.0
15/12:00am 27.2 23.2 4.9 24 11.5 S 15 20 8 11 1013.2 1011.5 0.0
 
Date/Time
CST
Temp
°C
App
Temp
°C
Dew
Point
°C
Rel
Hum
%
Delta-T
°C
Wind Press
QNH
hPa
Press
MSL
hPa
Rain since
9am
mm
Dir  Spd
km/h
Gust
km/h
Spd
kts
Gust
kts
14/11:30pm 27.6 23.7 5.2 24 11.7 S 15 19 8 10 1013.3 1011.6 0.0
14/11:00pm 28.6 24.4 5.5 23 12.1 S 17 24 9 13 1013.2 1011.5 0.0

Other Formats:

Comma delimited format used in spreadsheet applications
http://www.bom.gov.au/fwo/IDD60801/IDD60801.94255.axf

JavaScript Object Notation format (JSON) in row-major order
http://www.bom.gov.au/fwo/IDD60801/IDD60801.94255.json